Time,TemperatureF,DewpointF,PressureIn,WindDirection,WindDirectionDegrees,WindSpeedMPH,WindSpeedGustMPH,Humidity,HourlyPrecipIn,Conditions,Clouds,dailyrainin,SoftwareType,DateUTC
2013-04-23 00:07:00,53.0,41.3,30.14,ESE,111,3.0,6.0,64,0.00,,,0.00,WUHU216DAVISVP2,2013-04-23 04:07:00,
2013-04-23 00:08:00,53.0,41.3,30.14,ESE,105,2.0,6.0,64,0.00,,,0.00,WUHU216DAVISVP2,2013-04-23 04:08:00,
2013-04-23 00:13:00,53.0,41.3,30.14,ESE,103,3.0,6.0,64,0.00,,,0.00,WUHU216DAVISVP2,2013-04-23 04:13:00,
2013-04-23 00:29:00,52.9,41.2,30.14,East,96,2.0,5.0,64,0.00,,,0.00,WUHU216DAVISVP2,2013-04-23 04:29:00,
2013-04-23 00:34:00,52.9,40.8,30.14,East,96,3.0,5.0,63,0.00,,,0.00,WUHU216DAVISVP2,2013-04-23 04:34:00,
2013-04-23 00:51:00,53.0,40.3,30.14,East,96,5.0,6.0,62,0.00,,,0.00,WUHU216DAVISVP2,2013-04-23 04:51:00,
2013-04-23 00:56:00,53.0,40.3,30.14,East,96,5.0,6.0,62,0.00,,,0.00,WUHU216DAVISVP2,2013-04-23 04:56:00,
2013-04-23 01:12:00,51.1,40.2,30.13,East,82,1.0,5.0,66,0.00,,,0.00,WUHU216DAVISVP2,2013-04-23 05:12:00,
2013-04-23 01:17:00,50.9,40.4,30.13,East,96,3.0,5.0,67,0.00,,,0.00,WUHU216DAVISVP2,2013-04-23 05:17:00,
2013-04-23 01:22:00,51.0,40.5,30.13,East,88,4.0,5.0,67,0.00,,,0.00,WUHU216DAVISVP2,2013-04-23 05:22:00,
2013-04-23 01:34:00,51.4,40.9,30.12,ESE,105,5.0,7.0,67,0.00,,,0.00,WUHU216DAVISVP2,2013-04-23 05:34:00,
2013-04-23 01:39:00,51.1,40.6,30.12,East,101,4.0,7.0,67,0.00,,,0.00,WUHU216DAVISVP2,2013-04-23 05:39:00,
2013-04-23 01:56:00,50.6,40.5,30.12,East,96,4.0,6.0,68,0.00,,,0.00,WUHU216DAVISVP2,2013-04-23 05:56:00,
2013-04-23 02:01:00,50.3,40.6,30.12,ESE,104,4.0,6.0,69,0.00,,,0.00,WUHU216DAVISVP2,2013-04-23 06:01:00,
2013-04-23 02:18:00,49.3,40.7,30.12,ESE,108,6.0,6.0,72,0.00,,,0.00,WUHU216DAVISVP2,2013-04-23 06:18:00,
2013-04-23 02:23:00,49.1,40.6,30.12,ESE,108,6.0,11.0,72,0.00,,,0.00,WUHU216DAVISVP2,2013-04-23 06:23:00,
2013-04-23 02:40:00,48.5,40.7,30.11,ESE,110,1.0,7.0,74,0.00,,,0.00,WUHU216DAVISVP2,2013-04-23 06:40:00,
2013-04-23 02:45:00,48.3,40.5,30.11,ESE,102,2.0,5.0,74,0.00,,,0.00,WUHU216DAVISVP2,2013-04-23 06:45:00,
2013-04-23 03:02:00,48.0,40.5,30.10,ESE,110,4.0,5.0,75,0.00,,,0.00,WUHU216DAVISVP2,2013-04-23 07:02:00,
2013-04-23 03:07:00,48.0,40.5,30.10,ESE,103,2.0,5.0,75,0.00,,,0.00,WUHU216DAVISVP2,2013-04-23 07:07:00,
2013-04-23 03:24:00,48.0,40.5,30.10,ESE,120,4.0,5.0,75,0.00,,,0.00,WUHU216DAVISVP2,2013-04-23 07:24:00,
2013-04-23 03:29:00,48.1,40.6,30.09,ESE,105,4.0,5.0,75,0.00,,,0.00,WUHU216DAVISVP2,2013-04-23 07:29:00,
2013-04-23 03:46:00,47.9,40.8,30.09,ESE,112,5.0,6.0,76,0.00,,,0.00,WUHU216DAVISVP2,2013-04-23 07:46:00,
2013-04-23 03:51:00,48.0,40.9,30.09,ESE,105,4.0,7.0,76,0.00,,,0.00,WUHU216DAVISVP2,2013-04-23 07:51:00,
2013-04-23 04:08:00,47.9,40.8,30.08,ESE,105,2.0,7.0,76,0.00,,,0.00,WUHU216DAVISVP2,2013-04-23 08:08:00,
2013-04-23 04:13:00,47.7,40.9,30.08,ESE,105,1.0,5.0,77,0.00,,,0.00,WUHU216DAVISVP2,2013-04-23 08:13:00,
2013-04-23 04:30:00,47.9,40.8,30.06,ESE,110,1.0,6.0,76,0.00,,,0.00,WUHU216DAVISVP2,2013-04-23 08:30:00,
2013-04-23 04:35:00,47.8,40.7,30.06,ESE,113,3.0,6.0,76,0.00,,,0.00,WUHU216DAVISVP2,2013-04-23 08:35:00,
2013-04-23 04:40:00,47.8,40.6,30.06,ESE,112,2.0,6.0,76,0.00,,,0.00,WUHU216DAVISVP2,2013-04-23 08:40:00,
2013-04-23 04:51:00,48.0,40.9,30.05,ESE,113,2.0,6.0,76,0.00,,,0.00,WUHU216DAVISVP2,2013-04-23 08:51:00,
2013-04-23 04:56:00,48.0,40.9,30.05,SE,129,2.0,6.0,76,0.00,,,0.00,WUHU216DAVISVP2,2013-04-23 08:56:00,
2013-04-23 05:13:00,48.4,40.8,30.04,ESE,106,3.0,6.0,75,0.00,,,0.00,WUHU216DAVISVP2,2013-04-23 09:13:00,
2013-04-23 05:18:00,48.4,40.9,30.04,ESE,117,5.0,6.0,75,0.00,,,0.00,WUHU216DAVISVP2,2013-04-23 09:18:00,
2013-04-23 05:35:00,48.5,40.9,30.05,SSE,150,2.0,6.0,75,0.00,,,0.00,WUHU216DAVISVP2,2013-04-23 09:35:00,
2013-04-23 05:40:00,48.6,41.0,30.05,SSE,163,1.0,5.0,75,0.00,,,0.00,WUHU216DAVISVP2,2013-04-23 09:40:00,
2013-04-23 05:45:00,48.5,41.0,30.06,SE,146,2.0,5.0,75,0.00,,,0.00,WUHU216DAVISVP2,2013-04-23 09:45:00,
2013-04-23 05:57:00,49.0,41.8,30.06,SE,142,6.0,7.0,76,0.00,,,0.00,WUHU216DAVISVP2,2013-04-23 09:57:00,
2013-04-23 06:02:00,49.3,41.7,30.06,SE,141,3.0,7.0,75,0.00,,,0.00,WUHU216DAVISVP2,2013-04-23 10:02:00,
2013-04-23 06:19:00,50.3,42.3,30.05,SSE,155,3.0,7.0,74,0.00,,,0.00,WUHU216DAVISVP2,2013-04-23 10:19:00,
2013-04-23 06:24:00,50.5,42.5,30.05,SSE,152,4.0,7.0,74,0.00,,,0.00,WUHU216DAVISVP2,2013-04-23 10:24:00,
2013-04-23 06:29:00,50.6,42.4,30.04,SE,131,5.0,7.0,73,0.00,,,0.00,WUHU216DAVISVP2,2013-04-23 10:29:00,
2013-04-23 06:41:00,51.0,42.7,30.03,SE,135,6.0,7.0,73,0.00,,,0.00,WUHU216DAVISVP2,2013-04-23 10:41:00,
2013-04-23 06:46:00,51.2,42.5,30.03,SSE,148,4.0,7.0,72,0.00,,,0.00,WUHU216DAVISVP2,2013-04-23 10:46:00,
2013-04-23 07:03:00,51.8,43.2,30.04,SSE,158,6.0,10.0,72,0.00,,,0.00,WUHU216DAVISVP2,2013-04-23 11:03:00,
2013-04-23 07:08:00,51.9,43.2,30.05,SSE,155,8.0,10.0,72,0.00,,,0.00,WUHU216DAVISVP2,2013-04-23 11:08:00,
2013-04-23 07:25:00,52.7,43.7,30.03,SE,130,7.0,13.0,71,0.00,,,0.00,WUHU216DAVISVP2,2013-04-23 11:25:00,
2013-04-23 07:30:00,52.6,43.2,30.03,SE,140,6.0,13.0,70,0.00,,,0.00,WUHU216DAVISVP2,2013-04-23 11:30:00,
2013-04-23 07:47:00,53.1,44.1,30.03,SE,146,5.0,10.0,71,0.00,,,0.00,WUHU216DAVISVP2,2013-04-23 11:47:00,
2013-04-23 07:52:00,53.8,44.0,30.03,SSE,148,6.0,10.0,69,0.00,,,0.00,WUHU216DAVISVP2,2013-04-23 11:52:00,
2013-04-23 08:09:00,54.9,44.3,30.04,SSE,148,7.0,11.0,67,0.00,,,0.00,WUHU216DAVISVP2,2013-04-23 12:09:00,
2013-04-23 08:14:00,54.9,44.7,30.05,SSE,158,5.0,11.0,68,0.00,,,0.00,WUHU216DAVISVP2,2013-04-23 12:14:00,
2013-04-23 08:30:00,54.5,44.2,30.04,SSE,148,8.0,11.0,68,0.00,,,0.00,WUHU216DAVISVP2,2013-04-23 12:30:00,
2013-04-23 08:35:00,54.5,44.2,30.04,SSE,155,7.0,11.0,68,0.00,,,0.00,WUHU216DAVISVP2,2013-04-23 12:35:00,
2013-04-23 08:40:00,54.7,44.3,30.04,SSE,153,8.0,11.0,68,0.00,,,0.00,WUHU216DAVISVP2,2013-04-23 12:40:00,
2013-04-23 08:52:00,54.9,44.7,30.04,SSE,156,10.0,12.0,68,0.00,,,0.00,WUHU216DAVISVP2,2013-04-23 12:52:00,
2013-04-23 08:57:00,55.0,44.2,30.04,SSE,161,9.0,13.0,67,0.00,,,0.00,WUHU216DAVISVP2,2013-04-23 12:57:00,
2013-04-23 09:14:00,55.8,45.0,30.04,South,176,8.0,14.0,67,0.00,,,0.00,WUHU216DAVISVP2,2013-04-23 13:14:00,
2013-04-23 09:19:00,56.1,45.3,30.04,South,172,9.0,14.0,67,0.00,,,0.00,WUHU216DAVISVP2,2013-04-23 13:19:00,
2013-04-23 09:24:00,56.4,45.6,30.03,South,179,7.0,12.0,67,0.00,,,0.00,WUHU216DAVISVP2,2013-04-23 13:24:00,
2013-04-23 09:36:00,57.0,45.9,30.03,South,174,4.0,11.0,66,0.00,,,0.00,WUHU216DAVISVP2,2013-04-23 13:36:00,
2013-04-23 09:41:00,56.9,45.8,30.03,SE,146,7.0,11.0,66,0.00,,,0.00,WUHU216DAVISVP2,2013-04-23 13:41:00,
2013-04-23 09:58:00,57.3,45.8,30.02,SE,141,7.0,13.0,65,0.00,,,0.00,WUHU216DAVISVP2,2013-04-23 13:58:00,
2013-04-23 10:03:00,57.5,46.0,30.02,SE,140,10.0,13.0,65,0.00,,,0.00,WUHU216DAVISVP2,2013-04-23 14:03:00,
2013-04-23 10:20:00,58.2,46.2,30.02,SE,143,7.0,15.0,64,0.00,,,0.00,WUHU216DAVISVP2,2013-04-23 14:20:00,
2013-04-23 10:25:00,58.4,46.4,30.02,SSE,156,10.0,15.0,64,0.00,,,0.00,WUHU216DAVISVP2,2013-04-23 14:25:00,
2013-04-23 10:30:00,58.5,46.5,30.02,SSE,165,10.0,15.0,64,0.00,,,0.00,WUHU216DAVISVP2,2013-04-23 14:30:00,
2013-04-23 10:42:00,58.8,46.8,30.01,SSE,167,10.0,16.0,64,0.00,,,0.00,WUHU216DAVISVP2,2013-04-23 14:42:00,
2013-04-23 10:47:00,59.0,46.6,30.01,SSE,150,10.0,16.0,63,0.00,,,0.00,WUHU216DAVISVP2,2013-04-23 14:47:00,
2013-04-23 11:04:00,60.1,47.6,30.01,SE,143,11.0,17.0,63,0.00,,,0.00,WUHU216DAVISVP2,2013-04-23 15:04:00,
2013-04-23 11:09:00,60.6,47.7,30.01,South,170,13.0,17.0,62,0.00,,,0.00,WUHU216DAVISVP2,2013-04-23 15:09:00,
2013-04-23 11:26:00,61.6,48.6,30.00,SSE,153,10.0,18.0,62,0.00,,,0.00,WUHU216DAVISVP2,2013-04-23 15:26:00,
2013-04-23 11:31:00,62.2,49.2,30.01,South,186,9.0,18.0,62,0.00,,,0.00,WUHU216DAVISVP2,2013-04-23 15:31:00,
2013-04-23 11:36:00,62.6,48.2,30.01,SSW,197,13.0,18.0,59,0.00,,,0.00,WUHU216DAVISVP2,2013-04-23 15:36:00,
2013-04-23 11:48:00,63.5,48.6,30.01,SSE,161,8.0,17.0,58,0.00,,,0.00,WUHU216DAVISVP2,2013-04-23 15:48:00,
2013-04-23 11:53:00,63.7,48.6,30.00,SSW,193,14.0,17.0,58,0.00,,,0.00,WUHU216DAVISVP2,2013-04-23 15:53:00,
2013-04-23 12:09:00,64.2,49.7,30.00,South,186,9.0,18.0,59,0.00,,,0.00,WUHU216DAVISVP2,2013-04-23 16:09:00,
2013-04-23 12:14:00,64.5,50.0,30.00,SSW,210,11.0,17.0,59,0.00,,,0.00,WUHU216DAVISVP2,2013-04-23 16:14:00,
2013-04-23 12:19:00,64.7,50.6,30.00,SE,132,10.0,17.0,60,0.00,,,0.00,WUHU216DAVISVP2,2013-04-23 16:19:00,
2013-04-23 12:31:00,64.8,50.3,29.99,South,187,11.0,19.0,59,0.00,,,0.00,WUHU216DAVISVP2,2013-04-23 16:31:00,
2013-04-23 12:36:00,64.9,50.4,29.99,South,190,10.0,19.0,59,0.00,,,0.00,WUHU216DAVISVP2,2013-04-23 16:36:00,
2013-04-23 12:41:00,65.2,51.1,29.99,South,179,10.0,17.0,60,0.00,,,0.00,WUHU216DAVISVP2,2013-04-23 16:41:00,
2013-04-23 12:53:00,65.5,50.9,29.97,SSW,198,13.0,19.0,59,0.00,,,0.00,WUHU216DAVISVP2,2013-04-23 16:53:00,
2013-04-23 12:58:00,65.6,51.0,29.97,SSE,160,16.0,19.0,59,0.00,,,0.00,WUHU216DAVISVP2,2013-04-23 16:58:00,
2013-04-23 13:15:00,66.1,51.8,29.96,South,170,18.0,21.0,60,0.00,,,0.00,WUHU216DAVISVP2,2013-04-23 17:15:00,
2013-04-23 13:20:00,66.4,50.7,29.95,SSE,148,15.0,21.0,57,0.00,,,0.00,WUHU216DAVISVP2,2013-04-23 17:20:00,
2013-04-23 13:37:00,66.9,51.6,29.94,SSE,157,14.0,24.0,58,0.00,,,0.00,WUHU216DAVISVP2,2013-04-23 17:37:00,
2013-04-23 13:42:00,67.0,51.9,29.94,South,183,17.0,24.0,58,0.00,,,0.00,WUHU216DAVISVP2,2013-04-23 17:42:00,
2013-04-23 13:47:00,67.1,52.0,29.94,South,169,19.0,24.0,58,0.00,,,0.00,WUHU216DAVISVP2,2013-04-23 17:47:00,
2013-04-23 13:59:00,67.5,52.4,29.94,SSE,159,18.0,21.0,58,0.00,,,0.00,WUHU216DAVISVP2,2013-04-23 17:59:00,
2013-04-23 14:04:00,67.7,52.1,29.93,SSW,198,9.0,22.0,57,0.00,,,0.00,WUHU216DAVISVP2,2013-04-23 18:04:00,
2013-04-23 14:21:00,67.7,50.6,29.92,South,169,15.0,27.0,54,0.00,,,0.00,WUHU216DAVISVP2,2013-04-23 18:21:00,
2013-04-23 14:26:00,67.6,51.5,29.92,SSW,207,14.0,27.0,56,0.00,,,0.00,WUHU216DAVISVP2,2013-04-23 18:26:00,
2013-04-23 14:31:00,67.6,52.0,29.92,SSW,194,11.0,27.0,57,0.00,,,0.00,WUHU216DAVISVP2,2013-04-23 18:31:00,
2013-04-23 14:43:00,67.4,51.8,29.91,South,180,17.0,27.0,57,0.00,,,0.00,WUHU216DAVISVP2,2013-04-23 18:43:00,
2013-04-23 14:48:00,67.1,52.0,29.91,SSW,200,9.0,29.0,58,0.00,,,0.00,WUHU216DAVISVP2,2013-04-23 18:48:00,
2013-04-23 15:05:00,65.8,52.1,29.92,SSW,212,15.0,25.0,61,0.00,,,0.00,WUHU216DAVISVP2,2013-04-23 19:05:00,
2013-04-23 15:10:00,65.5,52.7,29.92,SSW,193,10.0,25.0,63,0.00,,,0.00,WUHU216DAVISVP2,2013-04-23 19:10:00,
2013-04-23 15:27:00,60.4,54.3,29.94,SW,225,15.0,28.0,80,0.00,,,0.00,WUHU216DAVISVP2,2013-04-23 19:27:00,
2013-04-23 15:32:00,59.7,54.6,29.94,SW,214,14.0,28.0,83,0.01,,,0.01,WUHU216DAVISVP2,2013-04-23 19:32:00,
2013-04-23 15:37:00,59.1,54.9,29.94,WSW,245,17.0,28.0,86,0.02,,,0.02,WUHU216DAVISVP2,2013-04-23 19:37:00,
2013-04-23 15:48:00,58.1,54.8,29.95,SW,229,16.0,25.0,89,0.02,,,0.02,WUHU216DAVISVP2,2013-04-23 19:48:00,
2013-04-23 15:53:00,58.1,54.8,29.95,SW,231,12.0,25.0,89,0.02,,,0.02,WUHU216DAVISVP2,2013-04-23 19:53:00,
2013-04-23 15:58:00,58.0,54.8,29.94,SW,226,16.0,25.0,89,0.02,,,0.02,WUHU216DAVISVP2,2013-04-23 19:58:00,
2013-04-23 16:10:00,57.7,54.8,29.94,SW,226,13.0,21.0,90,0.03,,,0.03,WUHU216DAVISVP2,2013-04-23 20:10:00,
2013-04-23 16:15:00,57.6,55.0,29.94,SW,235,10.0,21.0,91,0.03,,,0.03,WUHU216DAVISVP2,2013-04-23 20:15:00,
2013-04-23 16:20:00,57.6,55.0,29.93,SW,224,13.0,21.0,91,0.04,,,0.04,WUHU216DAVISVP2,2013-04-23 20:20:00,
2013-04-23 16:32:00,57.2,54.3,29.93,SW,233,15.0,19.0,90,0.03,,,0.05,WUHU216DAVISVP2,2013-04-23 20:32:00,
2013-04-23 16:37:00,57.1,54.5,29.93,SW,228,11.0,19.0,91,0.03,,,0.05,WUHU216DAVISVP2,2013-04-23 20:37:00,
2013-04-23 16:54:00,56.9,54.6,29.91,SSW,204,4.0,13.0,92,0.04,,,0.06,WUHU216DAVISVP2,2013-04-23 20:54:00,
2013-04-23 16:59:00,57.0,55.0,29.92,SSW,201,5.0,10.0,93,0.04,,,0.06,WUHU216DAVISVP2,2013-04-23 20:59:00,
2013-04-23 17:04:00,57.0,55.0,29.92,SSW,200,7.0,10.0,93,0.04,,,0.06,WUHU216DAVISVP2,2013-04-23 21:04:00,
2013-04-23 17:16:00,57.2,55.2,29.91,SW,219,9.0,14.0,93,0.03,,,0.06,WUHU216DAVISVP2,2013-04-23 21:16:00,
2013-04-23 17:21:00,57.3,55.3,29.91,SSW,212,8.0,14.0,93,0.03,,,0.07,WUHU216DAVISVP2,2013-04-23 21:21:00,
2013-04-23 17:38:00,57.7,55.7,29.90,SSW,197,13.0,15.0,93,0.02,,,0.07,WUHU216DAVISVP2,2013-04-23 21:38:00,
2013-04-23 17:43:00,57.8,55.8,29.90,SSW,203,9.0,15.0,93,0.02,,,0.07,WUHU216DAVISVP2,2013-04-23 21:43:00,
2013-04-23 17:48:00,57.8,55.8,29.90,South,187,9.0,15.0,93,0.02,,,0.07,WUHU216DAVISVP2,2013-04-23 21:48:00,
2013-04-23 18:00:00,57.6,55.6,29.89,South,191,8.0,17.0,93,0.01,,,0.07,WUHU216DAVISVP2,2013-04-23 22:00:00,
2013-04-23 18:05:00,57.6,55.6,29.89,SSW,207,5.0,17.0,93,0.01,,,0.07,WUHU216DAVISVP2,2013-04-23 22:05:00,
2013-04-23 18:10:00,57.6,55.6,29.89,SSE,166,5.0,11.0,93,0.01,,,0.07,WUHU216DAVISVP2,2013-04-23 22:10:00,
2013-04-23 18:22:00,57.6,55.3,29.88,South,177,4.0,11.0,92,0.00,,,0.07,WUHU216DAVISVP2,2013-04-23 22:22:00,
2013-04-23 18:27:00,57.7,55.4,29.88,South,186,3.0,11.0,92,0.00,,,0.07,WUHU216DAVISVP2,2013-04-23 22:27:00,
2013-04-23 18:32:00,57.6,55.3,29.88,South,176,6.0,11.0,92,0.00,,,0.07,WUHU216DAVISVP2,2013-04-23 22:32:00,
2013-04-23 18:44:00,57.4,55.1,29.88,SSW,200,5.0,11.0,92,0.01,,,0.08,WUHU216DAVISVP2,2013-04-23 22:44:00,
2013-04-23 18:49:00,57.3,55.3,29.89,SSW,194,5.0,11.0,93,0.01,,,0.08,WUHU216DAVISVP2,2013-04-23 22:49:00,
2013-04-23 18:54:00,57.1,55.1,29.89,SSW,212,4.0,9.0,93,0.02,,,0.09,WUHU216DAVISVP2,2013-04-23 22:54:00,
2013-04-23 19:06:00,56.9,55.2,29.90,SSW,197,6.0,11.0,94,0.07,,,0.14,WUHU216DAVISVP2,2013-04-23 23:06:00,
2013-04-23 19:11:00,56.8,55.1,29.88,South,181,4.0,11.0,94,0.08,,,0.15,WUHU216DAVISVP2,2013-04-23 23:11:00,
2013-04-23 19:16:00,56.7,55.0,29.88,South,190,4.0,11.0,94,0.10,,,0.17,WUHU216DAVISVP2,2013-04-23 23:16:00,
2013-04-23 19:27:00,56.4,54.7,29.87,SSE,165,6.0,9.0,94,0.14,,,0.21,WUHU216DAVISVP2,2013-04-23 23:27:00,
2013-04-23 19:32:00,56.3,54.8,29.87,SSE,164,7.0,10.0,95,0.15,,,0.22,WUHU216DAVISVP2,2013-04-23 23:32:00,
2013-04-23 19:37:00,56.1,54.6,29.86,SSE,158,5.0,10.0,95,0.16,,,0.24,WUHU216DAVISVP2,2013-04-23 23:37:00,
2013-04-23 19:49:00,55.9,54.5,29.84,ESE,120,1.0,8.0,95,0.21,,,0.29,WUHU216DAVISVP2,2013-04-23 23:49:00,
2013-04-23 19:54:00,55.8,54.4,29.85,SSE,158,2.0,7.0,95,0.22,,,0.31,WUHU216DAVISVP2,2013-04-23 23:54:00,
2013-04-23 20:11:00,55.5,54.1,29.85,SSW,193,1.0,4.0,95,0.19,,,0.34,WUHU216DAVISVP2,2013-04-24 00:11:00,
2013-04-23 20:16:00,55.5,54.1,29.84,SE,137,1.0,4.0,95,0.21,,,0.38,WUHU216DAVISVP2,2013-04-24 00:16:00,
2013-04-23 20:21:00,55.4,54.0,29.84,SE,139,0.0,4.0,95,0.20,,,0.39,WUHU216DAVISVP2,2013-04-24 00:21:00,
2013-04-23 20:33:00,55.2,53.8,29.83,SE,132,0.0,2.0,95,0.19,,,0.42,WUHU216DAVISVP2,2013-04-24 00:33:00,
2013-04-23 20:38:00,55.1,53.9,29.84,SSE,161,0.0,1.0,96,0.21,,,0.45,WUHU216DAVISVP2,2013-04-24 00:38:00,
2013-04-23 20:55:00,55.0,53.8,29.83,ESE,113,0.0,2.0,96,0.24,,,0.55,WUHU216DAVISVP2,2013-04-24 00:55:00,
2013-04-23 21:00:00,54.9,53.7,29.83,East,96,1.0,2.0,96,0.26,,,0.58,WUHU216DAVISVP2,2013-04-24 01:00:00,
2013-04-23 21:05:00,54.8,53.6,29.83,East,101,0.0,2.0,96,0.27,,,0.60,WUHU216DAVISVP2,2013-04-24 01:05:00,
2013-04-23 21:17:00,54.7,53.8,29.84,ESE,102,0.0,1.0,97,0.28,,,0.66,WUHU216DAVISVP2,2013-04-24 01:17:00,
2013-04-23 21:22:00,54.6,53.7,29.83,NNW,343,0.0,0.0,97,0.31,,,0.70,WUHU216DAVISVP2,2013-04-24 01:22:00,
2013-04-23 21:39:00,54.7,54.1,29.84,West,269,0.0,3.0,98,0.36,,,0.81,WUHU216DAVISVP2,2013-04-24 01:39:00,
2013-04-23 21:44:00,52.7,51.6,29.85,NW,305,13.0,20.0,96,0.36,,,0.84,WUHU216DAVISVP2,2013-04-24 01:44:00,
2013-04-23 21:49:00,48.3,46.6,29.86,NW,311,13.0,21.0,94,0.36,,,0.87,WUHU216DAVISVP2,2013-04-24 01:49:00,
2013-04-23 22:01:00,44.6,43.5,29.87,NW,306,15.0,22.0,96,0.31,,,0.89,WUHU216DAVISVP2,2013-04-24 02:01:00,
2013-04-23 22:06:00,43.9,42.8,29.87,NW,312,12.0,22.0,96,0.29,,,0.89,WUHU216DAVISVP2,2013-04-24 02:06:00,
2013-04-23 22:11:00,43.5,42.7,29.86,NNW,328,15.0,22.0,97,0.27,,,0.89,WUHU216DAVISVP2,2013-04-24 02:11:00,
2013-04-23 22:23:00,42.9,42.1,29.85,NW,324,11.0,22.0,97,0.21,,,0.91,WUHU216DAVISVP2,2013-04-24 02:23:00,
2013-04-23 22:29:00,42.6,41.8,29.86,NW,310,11.0,17.0,97,0.19,,,0.91,WUHU216DAVISVP2,2013-04-24 02:29:00,
2013-04-23 22:45:00,42.5,41.7,29.89,NW,316,12.0,19.0,97,0.15,,,1.00,WUHU216DAVISVP2,2013-04-24 02:45:00,
2013-04-23 22:50:00,42.4,41.9,29.88,NW,317,14.0,19.0,98,0.16,,,1.03,WUHU216DAVISVP2,2013-04-24 02:50:00,
2013-04-23 22:55:00,42.1,41.6,29.86,NNW,346,10.0,20.0,98,0.16,,,1.05,WUHU216DAVISVP2,2013-04-24 02:55:00,
2013-04-23 23:07:00,42.2,41.7,29.85,North,359,14.0,20.0,98,0.17,,,1.06,WUHU216DAVISVP2,2013-04-24 03:07:00,
2013-04-23 23:12:00,42.1,41.6,29.87,North,4,9.0,19.0,98,0.16,,,1.06,WUHU216DAVISVP2,2013-04-24 03:12:00,
2013-04-23 23:28:00,42.3,41.8,29.85,North,359,12.0,17.0,98,0.18,,,1.09,WUHU216DAVISVP2,2013-04-24 03:28:00,
2013-04-23 23:33:00,42.2,41.7,29.85,North,356,8.0,17.0,98,0.18,,,1.11,WUHU216DAVISVP2,2013-04-24 03:33:00,
2013-04-23 23:38:00,42.1,41.6,29.85,NNE,13,5.0,16.0,98,0.16,,,1.12,WUHU216DAVISVP2,2013-04-24 03:38:00,
2013-04-23 23:51:00,42.2,41.7,29.85,NNE,13,10.0,14.0,98,0.11,,,1.14,WUHU216DAVISVP2,2013-04-24 03:51:00,
2013-04-23 23:56:00,42.1,41.6,29.86,NNW,339,5.0,14.0,98,0.10,,,1.15,WUHU216DAVISVP2,2013-04-24 03:56:00,